Saint George's, Canada
Current Conditions -  °F | °C
As of 12:00 PM on Friday 28 Nov 2014 (Local Time) from CYJT Reporting Station
Broken Clouds Broken Clouds  
Wind Chill: 22°   Ceiling: 2500
Heat Index: 30°   Visibility: 15mi
Dew Point: 21°   Wind: 9mph
Humidity: 69%   Direction: 10°N
Pressure: 29.9"   Gusts: NA
Location:  48.43°N, 58.5°W
Report Text: CYJT 281500Z 01008KT 15SM BKN025 M01/M06 A2990 RMK SC7 SLP125
Loading
Personal Weather Stations






























Interactive Weather Map New forecast layout! Learn more

10-Day Weather Forecast

Advertisements
Track Severe Weather on mobile